Alford, MA

3:53 AM EDT on August 22, 2014 (GMT -0400)
GB Anderson St | Change Station
CLOSE
Current Station
Personal Weather Station
Location: Great Barrington, MA
Elevation: 715 ft
Nearby Weather Stations

Elev 715 ft 42.20 °N, 73.35 °W | Updated 2 minutes ago

Overcast
Overcast
64.8 °F
Feels Like 64.8 °F
N
0.0
Wind Variable Wind from South
Gusts 1.0 mph

Today
High -- | Low -- °F
--% Chance of Precip.
Yesterday
High -- | Low -- °F
Precip. -- in
6:08 AM 7:43 PM
Waning Crescent, 9% visible
Pressure 29.99 in
Visibility 10.0 miles
Clouds Overcast 3600 ft
Dew Point 64 °F
Humidity 96%
Rainfall 0.00 in
Snow Depth Not available.
UV 0 out of 12
Pollen 8.00 out of 12
PM2.5 Good
Flu Activity Not available.
METAR KPSF 220654Z AUTO 15004KT 10SM OVC036 17/16 A3005 RMK AO2 SLP154 T01720161

More Conditions Fewer Conditions

Pressure 29.99 in
Visibility 10.0 miles
Clouds Overcast 3600 ft
Dew Point 64 °F
Humidity 96%
Rainfall 0.00 in
Snow Depth Not available.
UV 0 out of 12
Pollen 8.00 out of 12
PM2.5 Good
Flu Activity Not available.
METAR KPSF 220654Z AUTO 15004KT 10SM OVC036 17/16 A3005 RMK AO2 SLP154 T01720161

More Conditions Fewer Conditions

10-Day Weather Forecast

Almanac

Astronomy

Aug. 22, 2014 Rise Set
Actual Time 6:08 AM EDT 7:43 PM EDT
Civil Twilight 5:38 AM EDT 8:13 PM EDT
Nautical Twilight 5:02 AM EDT 8:48 PM EDT
Astronomical Twilight 4:24 AM EDT 9:26 PM EDT
Moon 3:27 AM EDT 5:51 PM EDT
Length of Visible Light 14h 34m
Length of Day
13h 35m
Tomorrow will be 2m 37s shorter.
Waning Crescent, 9% of the Moon is Illuminated
Today
Waning Crescent
Aug 25
New
Sep 2
First Quarter
Sep 8
Full
Sep 15
Last Quarter

Today's Extremes

State Highs State Lows

Community

WunderPhotos

Upload Photos

1,746,131 photos uploaded!

Nearby

Air Quality

  Air Quality AQ Index Pollutant
Yesterday Moderate
PM2.5
Current Good
PM2.5
Friday Good
PM2.5
Friday Good
OZONE

Snow Depth

Station Depth Elevation
No new snow has been reported.

Earthquake Activity

City Distance Mag. Time & Date
No recent earthquake activity has been reported nearby.
Minimum magnitude displayed is 2.5.

Coastal Water Temperatures

Place Temperature
No Stations Reporting

Nearby Weather Stations